sensor_id;sensor_type;location;lat;lon;timestamp;P1;durP1;ratioP1;P2;durP2;ratioP2
49758;SDS011;35654;46.080;11.118;2023-02-11T00:01:45;32.58;;;14.18;;
49758;SDS011;35654;46.080;11.118;2023-02-11T00:04:12;38.53;;;13.88;;
49758;SDS011;35654;46.080;11.118;2023-02-11T00:06:39;34.70;;;14.75;;
49758;SDS011;35654;46.080;11.118;2023-02-11T00:11:32;31.60;;;13.77;;
49758;SDS011;35654;46.080;11.118;2023-02-11T00:14:00;38.67;;;14.43;;
49758;SDS011;35654;46.080;11.118;2023-02-11T00:16:28;36.88;;;13.82;;
49758;SDS011;35654;46.080;11.118;2023-02-11T00:19:00;36.80;;;14.50;;
49758;SDS011;35654;46.080;11.118;2023-02-11T00:21:28;37.78;;;13.73;;
49758;SDS011;35654;46.080;11.118;2023-02-11T00:23:55;28.00;;;13.57;;
49758;SDS011;35654;46.080;11.118;2023-02-11T00:26:25;36.28;;;14.10;;
49758;SDS011;35654;46.080;11.118;2023-02-11T00:28:58;29.33;;;13.27;;
49758;SDS011;35654;46.080;11.118;2023-02-11T00:31:26;34.70;;;14.35;;
49758;SDS011;35654;46.080;11.118;2023-02-11T00:33:54;30.20;;;12.35;;
49758;SDS011;35654;46.080;11.118;2023-02-11T00:36:22;30.83;;;12.82;;
49758;SDS011;35654;46.080;11.118;2023-02-11T00:38:51;30.10;;;12.75;;
49758;SDS011;35654;46.080;11.118;2023-02-11T00:41:19;28.33;;;13.27;;
49758;SDS011;35654;46.080;11.118;2023-02-11T00:43:47;28.63;;;13.10;;
49758;SDS011;35654;46.080;11.118;2023-02-11T00:46:14;29.38;;;12.45;;
49758;SDS011;35654;46.080;11.118;2023-02-11T00:48:42;29.30;;;13.23;;
49758;SDS011;35654;46.080;11.118;2023-02-11T00:51:09;35.03;;;13.18;;
49758;SDS011;35654;46.080;11.118;2023-02-11T00:53:35;33.95;;;12.68;;
49758;SDS011;35654;46.080;11.118;2023-02-11T00:56:02;25.90;;;12.35;;
49758;SDS011;35654;46.080;11.118;2023-02-11T00:58:30;43.47;;;14.13;;
49758;SDS011;35654;46.080;11.118;2023-02-11T01:00:56;28.70;;;12.80;;
49758;SDS011;35654;46.080;11.118;2023-02-11T01:06:27;32.00;;;12.75;;
49758;SDS011;35654;46.080;11.118;2023-02-11T01:08:53;30.60;;;13.43;;
49758;SDS011;35654;46.080;11.118;2023-02-11T01:11:20;26.77;;;12.52;;
49758;SDS011;35654;46.080;11.118;2023-02-11T01:16:15;29.40;;;12.95;;
49758;SDS011;35654;46.080;11.118;2023-02-11T01:18:43;29.50;;;12.38;;
49758;SDS011;35654;46.080;11.118;2023-02-11T01:21:21;30.63;;;12.98;;
49758;SDS011;35654;46.080;11.118;2023-02-11T01:23:50;31.52;;;13.88;;
49758;SDS011;35654;46.080;11.118;2023-02-11T01:26:16;32.63;;;12.47;;
49758;SDS011;35654;46.080;11.118;2023-02-11T01:28:43;30.70;;;12.88;;
49758;SDS011;35654;46.080;11.118;2023-02-11T01:33:37;26.58;;;11.70;;
49758;SDS011;35654;46.080;11.118;2023-02-11T01:36:04;28.58;;;12.10;;
49758;SDS011;35654;46.080;11.118;2023-02-11T01:38:31;27.98;;;12.65;;
49758;SDS011;35654;46.080;11.118;2023-02-11T01:41:01;30.58;;;12.40;;
49758;SDS011;35654;46.080;11.118;2023-02-11T01:43:35;30.52;;;12.57;;
49758;SDS011;35654;46.080;11.118;2023-02-11T01:48:43;36.60;;;12.48;;
49758;SDS011;35654;46.080;11.118;2023-02-11T01:51:20;29.52;;;12.75;;
49758;SDS011;35654;46.080;11.118;2023-02-11T01:53:59;30.15;;;12.43;;
49758;SDS011;35654;46.080;11.118;2023-02-11T01:56:47;27.73;;;11.85;;
49758;SDS011;35654;46.080;11.118;2023-02-11T01:59:46;28.00;;;12.30;;
49758;SDS011;35654;46.080;11.118;2023-02-11T02:02:20;33.45;;;12.27;;
49758;SDS011;35654;46.080;11.118;2023-02-11T02:10:45;26.92;;;11.93;;
49758;SDS011;35654;46.080;11.118;2023-02-11T02:13:13;28.13;;;11.20;;
49758;SDS011;35654;46.080;11.118;2023-02-11T02:15:43;23.40;;;11.35;;
49758;SDS011;35654;46.080;11.118;2023-02-11T02:18:48;24.70;;;11.15;;
49758;SDS011;35654;46.080;11.118;2023-02-11T02:24:45;27.02;;;12.38;;
49758;SDS011;35654;46.080;11.118;2023-02-11T02:34:01;29.30;;;12.43;;
49758;SDS011;35654;46.080;11.118;2023-02-11T02:36:40;35.25;;;11.50;;
49758;SDS011;35654;46.080;11.118;2023-02-11T02:39:31;26.63;;;11.95;;
49758;SDS011;35654;46.080;11.118;2023-02-11T02:42:01;23.33;;;11.35;;
49758;SDS011;35654;46.080;11.118;2023-02-11T02:44:27;25.75;;;11.63;;
49758;SDS011;35654;46.080;11.118;2023-02-11T02:46:54;31.48;;;11.55;;
49758;SDS011;35654;46.080;11.118;2023-02-11T02:55:07;20.73;;;10.48;;
49758;SDS011;35654;46.080;11.118;2023-02-11T02:58:09;24.42;;;10.95;;
49758;SDS011;35654;46.080;11.118;2023-02-11T03:03:34;24.95;;;10.55;;
49758;SDS011;35654;46.080;11.118;2023-02-11T03:06:37;27.08;;;10.68;;
49758;SDS011;35654;46.080;11.118;2023-02-11T03:09:19;26.83;;;11.48;;
49758;SDS011;35654;46.080;11.118;2023-02-11T03:11:53;24.73;;;11.38;;
49758;SDS011;35654;46.080;11.118;2023-02-11T03:14:19;26.42;;;10.52;;
49758;SDS011;35654;46.080;11.118;2023-02-11T03:16:50;27.67;;;10.68;;
49758;SDS011;35654;46.080;11.118;2023-02-11T03:19:21;24.02;;;11.23;;
49758;SDS011;35654;46.080;11.118;2023-02-11T03:21:54;23.05;;;10.75;;
49758;SDS011;35654;46.080;11.118;2023-02-11T03:24:29;23.90;;;10.80;;
49758;SDS011;35654;46.080;11.118;2023-02-11T03:27:20;24.92;;;10.80;;
49758;SDS011;35654;46.080;11.118;2023-02-11T03:30:13;21.55;;;10.48;;
49758;SDS011;35654;46.080;11.118;2023-02-11T03:36:05;27.15;;;10.60;;
49758;SDS011;35654;46.080;11.118;2023-02-11T03:38:43;25.38;;;10.63;;
49758;SDS011;35654;46.080;11.118;2023-02-11T03:41:14;25.17;;;10.40;;
49758;SDS011;35654;46.080;11.118;2023-02-11T03:43:46;23.13;;;10.43;;
49758;SDS011;35654;46.080;11.118;2023-02-11T03:46:17;22.10;;;10.27;;
49758;SDS011;35654;46.080;11.118;2023-02-11T03:48:54;23.60;;;10.65;;
49758;SDS011;35654;46.080;11.118;2023-02-11T03:53:51;24.77;;;9.70;;
49758;SDS011;35654;46.080;11.118;2023-02-11T03:56:22;21.30;;;9.27;;
49758;SDS011;35654;46.080;11.118;2023-02-11T03:58:52;21.55;;;10.15;;
49758;SDS011;35654;46.080;11.118;2023-02-11T04:01:19;22.10;;;10.38;;
49758;SDS011;35654;46.080;11.118;2023-02-11T04:03:45;25.17;;;9.77;;
49758;SDS011;35654;46.080;11.118;2023-02-11T04:06:13;24.25;;;10.27;;
49758;SDS011;35654;46.080;11.118;2023-02-11T04:08:39;23.70;;;9.85;;
49758;SDS011;35654;46.080;11.118;2023-02-11T04:11:06;22.55;;;10.20;;
49758;SDS011;35654;46.080;11.118;2023-02-11T04:13:33;27.70;;;9.85;;
49758;SDS011;35654;46.080;11.118;2023-02-11T04:18:26;19.75;;;9.68;;
49758;SDS011;35654;46.080;11.118;2023-02-11T04:20:53;19.98;;;9.88;;
49758;SDS011;35654;46.080;11.118;2023-02-11T04:23:19;27.27;;;11.27;;
49758;SDS011;35654;46.080;11.118;2023-02-11T04:25:47;24.33;;;10.07;;
49758;SDS011;35654;46.080;11.118;2023-02-11T04:28:14;23.63;;;10.50;;
49758;SDS011;35654;46.080;11.118;2023-02-11T04:30:41;23.77;;;10.75;;
49758;SDS011;35654;46.080;11.118;2023-02-11T04:35:34;24.48;;;10.35;;
49758;SDS011;35654;46.080;11.118;2023-02-11T04:38:01;22.48;;;10.27;;
49758;SDS011;35654;46.080;11.118;2023-02-11T04:42:53;18.45;;;8.90;;
49758;SDS011;35654;46.080;11.118;2023-02-11T04:45:22;21.98;;;10.43;;
49758;SDS011;35654;46.080;11.118;2023-02-11T04:50:15;20.83;;;9.32;;
49758;SDS011;35654;46.080;11.118;2023-02-11T04:52:44;23.92;;;9.70;;
49758;SDS011;35654;46.080;11.118;2023-02-11T04:57:39;20.15;;;9.80;;
49758;SDS011;35654;46.080;11.118;2023-02-11T05:00:06;21.92;;;9.98;;
49758;SDS011;35654;46.080;11.118;2023-02-11T05:02:35;22.77;;;9.88;;
49758;SDS011;35654;46.080;11.118;2023-02-11T05:05:02;27.90;;;11.00;;
49758;SDS011;35654;46.080;11.118;2023-02-11T05:07:27;30.63;;;11.43;;
49758;SDS011;35654;46.080;11.118;2023-02-11T05:09:53;25.07;;;11.00;;
49758;SDS011;35654;46.080;11.118;2023-02-11T05:12:18;22.17;;;9.73;;
49758;SDS011;35654;46.080;11.118;2023-02-11T05:14:44;23.33;;;10.00;;
49758;SDS011;35654;46.080;11.118;2023-02-11T05:17:10;23.00;;;9.40;;
49758;SDS011;35654;46.080;11.118;2023-02-11T05:19:37;21.77;;;9.50;;
49758;SDS011;35654;46.080;11.118;2023-02-11T05:22:04;20.98;;;9.48;;
49758;SDS011;35654;46.080;11.118;2023-02-11T05:24:31;18.42;;;8.40;;
49758;SDS011;35654;46.080;11.118;2023-02-11T05:26:56;18.90;;;9.70;;
49758;SDS011;35654;46.080;11.118;2023-02-11T05:29:22;28.97;;;10.60;;
49758;SDS011;35654;46.080;11.118;2023-02-11T05:31:48;26.85;;;11.30;;
49758;SDS011;35654;46.080;11.118;2023-02-11T05:34:15;26.13;;;9.73;;
49758;SDS011;35654;46.080;11.118;2023-02-11T05:36:41;28.17;;;10.95;;
49758;SDS011;35654;46.080;11.118;2023-02-11T05:39:07;21.05;;;9.93;;
49758;SDS011;35654;46.080;11.118;2023-02-11T05:41:34;28.90;;;10.73;;
49758;SDS011;35654;46.080;11.118;2023-02-11T05:46:27;22.73;;;10.57;;
49758;SDS011;35654;46.080;11.118;2023-02-11T05:48:53;21.58;;;10.02;;
49758;SDS011;35654;46.080;11.118;2023-02-11T05:51:21;22.30;;;9.90;;
49758;SDS011;35654;46.080;11.118;2023-02-11T05:53:51;18.55;;;8.77;;
49758;SDS011;35654;46.080;11.118;2023-02-11T05:56:18;22.85;;;9.60;;
49758;SDS011;35654;46.080;11.118;2023-02-11T05:58:45;26.83;;;10.02;;
49758;SDS011;35654;46.080;11.118;2023-02-11T06:01:12;25.42;;;9.68;;
49758;SDS011;35654;46.080;11.118;2023-02-11T06:03:39;23.33;;;9.82;;
49758;SDS011;35654;46.080;11.118;2023-02-11T06:08:41;21.77;;;9.85;;
49758;SDS011;35654;46.080;11.118;2023-02-11T06:11:08;22.15;;;9.95;;
49758;SDS011;35654;46.080;11.118;2023-02-11T06:16:02;24.45;;;9.05;;
49758;SDS011;35654;46.080;11.118;2023-02-11T06:20:55;20.55;;;9.15;;
49758;SDS011;35654;46.080;11.118;2023-02-11T06:23:22;24.30;;;9.25;;
49758;SDS011;35654;46.080;11.118;2023-02-11T06:28:15;20.80;;;9.00;;
49758;SDS011;35654;46.080;11.118;2023-02-11T06:30:42;22.83;;;9.95;;
49758;SDS011;35654;46.080;11.118;2023-02-11T06:33:08;49.42;;;14.38;;
49758;SDS011;35654;46.080;11.118;2023-02-11T06:35:37;21.20;;;9.70;;
49758;SDS011;35654;46.080;11.118;2023-02-11T06:38:04;27.80;;;9.63;;
49758;SDS011;35654;46.080;11.118;2023-02-11T06:40:30;22.33;;;9.05;;
49758;SDS011;35654;46.080;11.118;2023-02-11T06:42:57;20.15;;;9.15;;
49758;SDS011;35654;46.080;11.118;2023-02-11T06:45:23;20.05;;;9.50;;
49758;SDS011;35654;46.080;11.118;2023-02-11T06:47:50;25.37;;;10.47;;
49758;SDS011;35654;46.080;11.118;2023-02-11T06:52:43;22.10;;;8.43;;
49758;SDS011;35654;46.080;11.118;2023-02-11T06:55:10;16.95;;;8.18;;
49758;SDS011;35654;46.080;11.118;2023-02-11T06:57:36;19.73;;;8.48;;
49758;SDS011;35654;46.080;11.118;2023-02-11T07:00:03;23.17;;;8.77;;
49758;SDS011;35654;46.080;11.118;2023-02-11T07:02:30;20.50;;;8.68;;
49758;SDS011;35654;46.080;11.118;2023-02-11T07:04:57;20.33;;;8.60;;
49758;SDS011;35654;46.080;11.118;2023-02-11T07:07:24;20.20;;;8.85;;
49758;SDS011;35654;46.080;11.118;2023-02-11T07:12:16;24.90;;;10.50;;
49758;SDS011;35654;46.080;11.118;2023-02-11T07:14:41;22.87;;;9.03;;
49758;SDS011;35654;46.080;11.118;2023-02-11T07:17:08;26.52;;;9.82;;
49758;SDS011;35654;46.080;11.118;2023-02-11T07:19:33;21.87;;;9.40;;
49758;SDS011;35654;46.080;11.118;2023-02-11T07:22:00;24.10;;;10.77;;
49758;SDS011;35654;46.080;11.118;2023-02-11T07:24:25;26.00;;;10.48;;
49758;SDS011;35654;46.080;11.118;2023-02-11T07:26:51;24.83;;;10.37;;
49758;SDS011;35654;46.080;11.118;2023-02-11T07:29:17;17.90;;;9.02;;
49758;SDS011;35654;46.080;11.118;2023-02-11T07:31:42;21.07;;;9.30;;
49758;SDS011;35654;46.080;11.118;2023-02-11T07:34:08;27.00;;;9.80;;
49758;SDS011;35654;46.080;11.118;2023-02-11T07:36:35;18.02;;;8.70;;
49758;SDS011;35654;46.080;11.118;2023-02-11T07:39:01;22.75;;;9.48;;
49758;SDS011;35654;46.080;11.118;2023-02-11T07:41:27;22.03;;;9.80;;
49758;SDS011;35654;46.080;11.118;2023-02-11T07:43:52;20.03;;;9.83;;
49758;SDS011;35654;46.080;11.118;2023-02-11T07:46:22;20.10;;;9.50;;
49758;SDS011;35654;46.080;11.118;2023-02-11T07:48:51;22.52;;;10.40;;
49758;SDS011;35654;46.080;11.118;2023-02-11T07:51:19;20.92;;;10.43;;
49758;SDS011;35654;46.080;11.118;2023-02-11T07:53:47;24.33;;;10.40;;
49758;SDS011;35654;46.080;11.118;2023-02-11T07:56:14;22.27;;;10.23;;
49758;SDS011;35654;46.080;11.118;2023-02-11T07:58:43;22.00;;;10.20;;
49758;SDS011;35654;46.080;11.118;2023-02-11T08:01:14;24.92;;;10.18;;
49758;SDS011;35654;46.080;11.118;2023-02-11T08:03:43;25.35;;;10.68;;
49758;SDS011;35654;46.080;11.118;2023-02-11T08:06:15;22.38;;;10.50;;
49758;SDS011;35654;46.080;11.118;2023-02-11T08:08:45;25.27;;;11.15;;
49758;SDS011;35654;46.080;11.118;2023-02-11T08:11:18;32.65;;;12.57;;
49758;SDS011;35654;46.080;11.118;2023-02-11T08:13:47;23.08;;;9.98;;
49758;SDS011;35654;46.080;11.118;2023-02-11T08:16:18;20.58;;;8.38;;
49758;SDS011;35654;46.080;11.118;2023-02-11T08:18:47;23.30;;;8.90;;
49758;SDS011;35654;46.080;11.118;2023-02-11T08:21:14;17.10;;;7.72;;
49758;SDS011;35654;46.080;11.118;2023-02-11T08:26:19;23.52;;;8.80;;
49758;SDS011;35654;46.080;11.118;2023-02-11T08:28:46;19.20;;;7.97;;
49758;SDS011;35654;46.080;11.118;2023-02-11T08:31:15;20.50;;;8.77;;
49758;SDS011;35654;46.080;11.118;2023-02-11T08:33:43;16.52;;;7.80;;
49758;SDS011;35654;46.080;11.118;2023-02-11T08:36:20;18.67;;;8.60;;
49758;SDS011;35654;46.080;11.118;2023-02-11T08:38:47;17.42;;;9.10;;
49758;SDS011;35654;46.080;11.118;2023-02-11T08:41:13;18.80;;;8.77;;
49758;SDS011;35654;46.080;11.118;2023-02-11T08:43:39;15.95;;;8.13;;
49758;SDS011;35654;46.080;11.118;2023-02-11T08:46:06;18.00;;;7.97;;
49758;SDS011;35654;46.080;11.118;2023-02-11T08:48:36;19.15;;;7.93;;
49758;SDS011;35654;46.080;11.118;2023-02-11T08:51:06;21.80;;;8.53;;
49758;SDS011;35654;46.080;11.118;2023-02-11T08:53:33;18.40;;;8.18;;
49758;SDS011;35654;46.080;11.118;2023-02-11T08:56:00;17.02;;;8.10;;
49758;SDS011;35654;46.080;11.118;2023-02-11T08:58:26;58.67;;;24.55;;
49758;SDS011;35654;46.080;11.118;2023-02-11T09:00:53;18.92;;;9.02;;
49758;SDS011;35654;46.080;11.118;2023-02-11T09:03:20;19.08;;;8.50;;
49758;SDS011;35654;46.080;11.118;2023-02-11T09:05:47;17.83;;;8.60;;
49758;SDS011;35654;46.080;11.118;2023-02-11T09:08:15;20.67;;;10.07;;
49758;SDS011;35654;46.080;11.118;2023-02-11T09:10:41;18.02;;;9.13;;
49758;SDS011;35654;46.080;11.118;2023-02-11T09:13:07;17.03;;;7.80;;
49758;SDS011;35654;46.080;11.118;2023-02-11T09:15:33;16.77;;;7.75;;
49758;SDS011;35654;46.080;11.118;2023-02-11T09:17:59;16.27;;;7.97;;
49758;SDS011;35654;46.080;11.118;2023-02-11T09:20:26;16.10;;;7.50;;
49758;SDS011;35654;46.080;11.118;2023-02-11T09:22:52;16.17;;;7.95;;
49758;SDS011;35654;46.080;11.118;2023-02-11T09:27:45;15.20;;;7.85;;
49758;SDS011;35654;46.080;11.118;2023-02-11T09:30:10;15.07;;;7.60;;
49758;SDS011;35654;46.080;11.118;2023-02-11T09:32:36;15.53;;;7.70;;
49758;SDS011;35654;46.080;11.118;2023-02-11T09:35:02;15.70;;;7.93;;
49758;SDS011;35654;46.080;11.118;2023-02-11T09:37:27;17.97;;;7.87;;
49758;SDS011;35654;46.080;11.118;2023-02-11T09:39:52;15.00;;;7.47;;
49758;SDS011;35654;46.080;11.118;2023-02-11T09:42:37;14.20;;;7.27;;
49758;SDS011;35654;46.080;11.118;2023-02-11T09:45:11;13.18;;;6.53;;
49758;SDS011;35654;46.080;11.118;2023-02-11T09:47:56;15.27;;;6.60;;
49758;SDS011;35654;46.080;11.118;2023-02-11T09:50:33;11.57;;;6.35;;
49758;SDS011;35654;46.080;11.118;2023-02-11T09:53:05;13.93;;;6.47;;
49758;SDS011;35654;46.080;11.118;2023-02-11T09:55:37;14.68;;;6.20;;
49758;SDS011;35654;46.080;11.118;2023-02-11T09:58:29;10.98;;;6.10;;
49758;SDS011;35654;46.080;11.118;2023-02-11T10:12:31;10.77;;;6.05;;
49758;SDS011;35654;46.080;11.118;2023-02-11T10:18:12;11.85;;;6.10;;
49758;SDS011;35654;46.080;11.118;2023-02-11T10:21:02;11.93;;;5.97;;
49758;SDS011;35654;46.080;11.118;2023-02-11T10:23:38;11.18;;;5.60;;
49758;SDS011;35654;46.080;11.118;2023-02-11T10:26:13;13.73;;;6.07;;
49758;SDS011;35654;46.080;11.118;2023-02-11T10:28:41;15.13;;;7.13;;
49758;SDS011;35654;46.080;11.118;2023-02-11T10:31:12;14.90;;;6.00;;
49758;SDS011;35654;46.080;11.118;2023-02-11T10:33:43;14.52;;;6.35;;
49758;SDS011;35654;46.080;11.118;2023-02-11T10:36:16;13.07;;;6.78;;
49758;SDS011;35654;46.080;11.118;2023-02-11T10:38:42;16.60;;;6.43;;
49758;SDS011;35654;46.080;11.118;2023-02-11T10:41:09;14.20;;;6.43;;
49758;SDS011;35654;46.080;11.118;2023-02-11T10:43:41;14.30;;;6.60;;
49758;SDS011;35654;46.080;11.118;2023-02-11T10:46:09;11.93;;;5.97;;
49758;SDS011;35654;46.080;11.118;2023-02-11T10:51:23;13.02;;;6.03;;
49758;SDS011;35654;46.080;11.118;2023-02-11T10:56:35;14.48;;;6.07;;
49758;SDS011;35654;46.080;11.118;2023-02-11T10:59:04;11.38;;;6.07;;
49758;SDS011;35654;46.080;11.118;2023-02-11T11:01:40;13.30;;;5.40;;
49758;SDS011;35654;46.080;11.118;2023-02-11T11:06:54;9.80;;;5.90;;
49758;SDS011;35654;46.080;11.118;2023-02-11T11:09:34;14.45;;;6.30;;
49758;SDS011;35654;46.080;11.118;2023-02-11T11:17:44;10.02;;;6.20;;
49758;SDS011;35654;46.080;11.118;2023-02-11T11:22:40;45.72;;;22.45;;
49758;SDS011;35654;46.080;11.118;2023-02-11T11:25:26;12.63;;;6.28;;
49758;SDS011;35654;46.080;11.118;2023-02-11T11:27:54;12.52;;;6.43;;
49758;SDS011;35654;46.080;11.118;2023-02-11T11:30:22;15.02;;;6.05;;
49758;SDS011;35654;46.080;11.118;2023-02-11T11:32:52;11.00;;;6.07;;
49758;SDS011;35654;46.080;11.118;2023-02-11T11:35:27;12.87;;;6.00;;
49758;SDS011;35654;46.080;11.118;2023-02-11T11:37:57;10.15;;;5.70;;
49758;SDS011;35654;46.080;11.118;2023-02-11T11:40:27;12.18;;;6.00;;
49758;SDS011;35654;46.080;11.118;2023-02-11T11:45:56;14.40;;;5.95;;
49758;SDS011;35654;46.080;11.118;2023-02-11T11:48:57;10.23;;;5.03;;
49758;SDS011;35654;46.080;11.118;2023-02-11T11:51:16;10.45;;;5.10;;
49758;SDS011;35654;46.080;11.118;2023-02-11T11:53:50;12.30;;;5.13;;
49758;SDS011;35654;46.080;11.118;2023-02-11T11:56:26;9.43;;;5.50;;
49758;SDS011;35654;46.080;11.118;2023-02-11T11:58:54;8.88;;;5.45;;
49758;SDS011;35654;46.080;11.118;2023-02-11T12:17:38;9.82;;;4.97;;
49758;SDS011;35654;46.080;11.118;2023-02-11T12:36:05;8.38;;;5.10;;
49758;SDS011;35654;46.080;11.118;2023-02-11T12:39:28;6.82;;;4.95;;
49758;SDS011;35654;46.080;11.118;2023-02-11T12:55:23;8.48;;;4.72;;
49758;SDS011;35654;46.080;11.118;2023-02-11T12:57:52;10.63;;;4.80;;
49758;SDS011;35654;46.080;11.118;2023-02-11T13:00:24;7.63;;;5.00;;
49758;SDS011;35654;46.080;11.118;2023-02-11T13:05:37;7.22;;;4.53;;
49758;SDS011;35654;46.080;11.118;2023-02-11T13:08:27;9.50;;;5.30;;
49758;SDS011;35654;46.080;11.118;2023-02-11T13:11:01;10.52;;;4.57;;
49758;SDS011;35654;46.080;11.118;2023-02-11T13:13:48;7.53;;;4.40;;
49758;SDS011;35654;46.080;11.118;2023-02-11T13:16:23;8.10;;;4.85;;
49758;SDS011;35654;46.080;11.118;2023-02-11T13:24:28;6.20;;;4.15;;
49758;SDS011;35654;46.080;11.118;2023-02-11T13:27:21;7.70;;;4.65;;
49758;SDS011;35654;46.080;11.118;2023-02-11T13:30:12;8.13;;;4.22;;
49758;SDS011;35654;46.080;11.118;2023-02-11T13:35:36;7.28;;;4.40;;
49758;SDS011;35654;46.080;11.118;2023-02-11T13:41:04;8.82;;;4.60;;
49758;SDS011;35654;46.080;11.118;2023-02-11T13:43:39;7.53;;;4.75;;
49758;SDS011;35654;46.080;11.118;2023-02-11T13:46:05;7.75;;;5.03;;
49758;SDS011;35654;46.080;11.118;2023-02-11T13:51:12;7.57;;;4.55;;
49758;SDS011;35654;46.080;11.118;2023-02-11T13:53:51;9.02;;;5.20;;
49758;SDS011;35654;46.080;11.118;2023-02-11T13:58:57;7.70;;;5.32;;
49758;SDS011;35654;46.080;11.118;2023-02-11T14:04:19;8.10;;;4.18;;
49758;SDS011;35654;46.080;11.118;2023-02-11T14:07:23;7.95;;;4.38;;
49758;SDS011;35654;46.080;11.118;2023-02-11T14:16:11;8.15;;;4.35;;
49758;SDS011;35654;46.080;11.118;2023-02-11T14:21:18;6.78;;;4.85;;
49758;SDS011;35654;46.080;11.118;2023-02-11T14:28:59;8.23;;;4.28;;
49758;SDS011;35654;46.080;11.118;2023-02-11T14:41:34;8.23;;;3.80;;
49758;SDS011;35654;46.080;11.118;2023-02-11T14:44:06;8.95;;;4.53;;
49758;SDS011;35654;46.080;11.118;2023-02-11T14:46:44;7.13;;;4.30;;
49758;SDS011;35654;46.080;11.118;2023-02-11T14:49:15;7.18;;;4.63;;
49758;SDS011;35654;46.080;11.118;2023-02-11T14:51:53;6.85;;;4.10;;
49758;SDS011;35654;46.080;11.118;2023-02-11T14:54:23;6.28;;;3.95;;
49758;SDS011;35654;46.080;11.118;2023-02-11T14:59:39;7.53;;;4.50;;
49758;SDS011;35654;46.080;11.118;2023-02-11T15:02:36;7.75;;;4.30;;
49758;SDS011;35654;46.080;11.118;2023-02-11T15:07:55;6.57;;;3.75;;
49758;SDS011;35654;46.080;11.118;2023-02-11T15:10:30;16.35;;;8.75;;
49758;SDS011;35654;46.080;11.118;2023-02-11T15:12:59;26.23;;;14.63;;
49758;SDS011;35654;46.080;11.118;2023-02-11T15:15:27;11.45;;;4.60;;
49758;SDS011;35654;46.080;11.118;2023-02-11T15:17:54;16.98;;;5.32;;
49758;SDS011;35654;46.080;11.118;2023-02-11T15:20:24;22.20;;;10.18;;
49758;SDS011;35654;46.080;11.118;2023-02-11T15:23:00;8.63;;;4.75;;
49758;SDS011;35654;46.080;11.118;2023-02-11T15:25:28;9.77;;;5.13;;
49758;SDS011;35654;46.080;11.118;2023-02-11T15:27:55;14.53;;;5.63;;
49758;SDS011;35654;46.080;11.118;2023-02-11T15:32:47;7.97;;;4.10;;
49758;SDS011;35654;46.080;11.118;2023-02-11T15:35:14;14.02;;;4.47;;
49758;SDS011;35654;46.080;11.118;2023-02-11T15:40:10;43.40;;;16.15;;
49758;SDS011;35654;46.080;11.118;2023-02-11T15:42:51;49.50;;;18.10;;
49758;SDS011;35654;46.080;11.118;2023-02-11T15:45:22;33.33;;;10.18;;
49758;SDS011;35654;46.080;11.118;2023-02-11T15:48:06;22.48;;;7.20;;
49758;SDS011;35654;46.080;11.118;2023-02-11T15:50:37;22.08;;;6.70;;
49758;SDS011;35654;46.080;11.118;2023-02-11T15:58:36;12.40;;;6.15;;
49758;SDS011;35654;46.080;11.118;2023-02-11T16:01:04;18.02;;;5.88;;
49758;SDS011;35654;46.080;11.118;2023-02-11T16:03:30;9.85;;;4.10;;
49758;SDS011;35654;46.080;11.118;2023-02-11T16:06:19;15.60;;;6.20;;
49758;SDS011;35654;46.080;11.118;2023-02-11T16:08:58;60.35;;;21.20;;
49758;SDS011;35654;46.080;11.118;2023-02-11T16:11:55;28.00;;;10.88;;
49758;SDS011;35654;46.080;11.118;2023-02-11T16:14:23;26.02;;;7.20;;
49758;SDS011;35654;46.080;11.118;2023-02-11T16:16:52;24.75;;;9.65;;
49758;SDS011;35654;46.080;11.118;2023-02-11T16:19:21;16.92;;;6.50;;
49758;SDS011;35654;46.080;11.118;2023-02-11T16:21:49;10.27;;;4.95;;
49758;SDS011;35654;46.080;11.118;2023-02-11T16:24:18;13.25;;;5.10;;
49758;SDS011;35654;46.080;11.118;2023-02-11T16:26:47;22.08;;;6.63;;
49758;SDS011;35654;46.080;11.118;2023-02-11T16:29:16;19.88;;;6.57;;
49758;SDS011;35654;46.080;11.118;2023-02-11T16:31:46;33.97;;;13.30;;
49758;SDS011;35654;46.080;11.118;2023-02-11T16:34:22;25.55;;;7.38;;
49758;SDS011;35654;46.080;11.118;2023-02-11T16:36:50;16.30;;;7.15;;
49758;SDS011;35654;46.080;11.118;2023-02-11T16:39:19;15.50;;;6.38;;
49758;SDS011;35654;46.080;11.118;2023-02-11T16:41:48;22.17;;;7.47;;
49758;SDS011;35654;46.080;11.118;2023-02-11T16:44:15;19.60;;;7.10;;
49758;SDS011;35654;46.080;11.118;2023-02-11T16:46:41;14.77;;;5.63;;
49758;SDS011;35654;46.080;11.118;2023-02-11T16:49:08;29.27;;;13.33;;
49758;SDS011;35654;46.080;11.118;2023-02-11T16:51:55;49.70;;;19.13;;
49758;SDS011;35654;46.080;11.118;2023-02-11T16:54:25;17.85;;;7.45;;
49758;SDS011;35654;46.080;11.118;2023-02-11T16:56:51;12.05;;;5.25;;
49758;SDS011;35654;46.080;11.118;2023-02-11T16:59:16;13.23;;;6.20;;
49758;SDS011;35654;46.080;11.118;2023-02-11T17:01:42;15.80;;;7.03;;
49758;SDS011;35654;46.080;11.118;2023-02-11T17:04:12;17.60;;;7.70;;
49758;SDS011;35654;46.080;11.118;2023-02-11T17:06:46;19.70;;;7.22;;
49758;SDS011;35654;46.080;11.118;2023-02-11T17:09:19;18.25;;;7.38;;
49758;SDS011;35654;46.080;11.118;2023-02-11T17:11:48;20.42;;;8.52;;
49758;SDS011;35654;46.080;11.118;2023-02-11T17:14:15;33.05;;;8.55;;
49758;SDS011;35654;46.080;11.118;2023-02-11T17:16:43;23.77;;;8.85;;
49758;SDS011;35654;46.080;11.118;2023-02-11T17:19:12;25.83;;;8.90;;
49758;SDS011;35654;46.080;11.118;2023-02-11T17:21:43;23.17;;;8.57;;
49758;SDS011;35654;46.080;11.118;2023-02-11T17:24:09;24.05;;;7.63;;
49758;SDS011;35654;46.080;11.118;2023-02-11T17:26:36;20.02;;;7.10;;
49758;SDS011;35654;46.080;11.118;2023-02-11T17:29:06;16.20;;;7.18;;
49758;SDS011;35654;46.080;11.118;2023-02-11T17:31:33;14.95;;;6.90;;
49758;SDS011;35654;46.080;11.118;2023-02-11T17:34:00;15.55;;;6.78;;
49758;SDS011;35654;46.080;11.118;2023-02-11T17:36:26;15.50;;;7.60;;
49758;SDS011;35654;46.080;11.118;2023-02-11T17:38:53;17.57;;;7.70;;
49758;SDS011;35654;46.080;11.118;2023-02-11T17:41:18;21.48;;;8.00;;
49758;SDS011;35654;46.080;11.118;2023-02-11T17:43:44;27.17;;;8.50;;
49758;SDS011;35654;46.080;11.118;2023-02-11T17:46:09;20.40;;;8.63;;
49758;SDS011;35654;46.080;11.118;2023-02-11T17:48:36;22.93;;;9.63;;
49758;SDS011;35654;46.080;11.118;2023-02-11T17:51:02;25.90;;;10.88;;
49758;SDS011;35654;46.080;11.118;2023-02-11T17:53:28;23.25;;;10.75;;
49758;SDS011;35654;46.080;11.118;2023-02-11T17:55:54;25.90;;;11.33;;
49758;SDS011;35654;46.080;11.118;2023-02-11T17:58:21;22.90;;;9.50;;
49758;SDS011;35654;46.080;11.118;2023-02-11T18:00:49;23.75;;;9.05;;
49758;SDS011;35654;46.080;11.118;2023-02-11T18:05:42;24.30;;;10.30;;
49758;SDS011;35654;46.080;11.118;2023-02-11T18:08:07;22.88;;;10.23;;
49758;SDS011;35654;46.080;11.118;2023-02-11T18:10:33;34.20;;;13.07;;
49758;SDS011;35654;46.080;11.118;2023-02-11T18:12:59;26.93;;;10.70;;
49758;SDS011;35654;46.080;11.118;2023-02-11T18:15:25;22.50;;;9.95;;
49758;SDS011;35654;46.080;11.118;2023-02-11T18:17:51;22.80;;;9.65;;
49758;SDS011;35654;46.080;11.118;2023-02-11T18:20:16;31.00;;;10.30;;